Terminal Aerodrome Forecast
Issued by NWS

Home | Current Version | Previous Version | Text Only | Print | Product List | Glossary On
Versions: 1 2 3 4 5 6 7 8 9 10 11 12 13 14
000
FTUS43 KDLH 201700
TAFBRD
TAF
KBRD 201737Z 2018/2118 35009KT P6SM SCT022
      TEMPO 2019/2021 BKN025
     FM210000 VRB03KT P6SM SKC
     FM211700 14010KT P6SM SCT035=

USA.gov is the U.S. government's official web portal to all federal, state and local government web resources and services.